Time;durP1;ratioP1;P1;durP2;ratioP2;P2;SDS_P1;SDS_P2;PMS_P1;PMS_P2;Temp;Humidity;BMP_temperature;BMP_pressure;BME280_temperature;BME280_humidity;BME280_pressure;Samples;Min_cycle;Max_cycle;Signal;HPM_P1;HPM_P2
2021/08/21 00:01:12;;;;;;;3.83;3.45;;;;;;;19.03;58.47;100227.58;1689106;83;21616;-51
2021/08/21 00:03:39;;;;;;;2.98;2.77;;;;;;;18.96;58.80;100230.97;1700602;83;21586;-50
2021/08/21 00:06:06;;;;;;;2.72;2.62;;;;;;;18.97;59.03;100231.27;1698231;83;21029;-51
2021/08/21 00:08:32;;;;;;;4.95;2.58;;;;;;;19.12;58.80;100236.06;1694985;83;21098;-51
2021/08/21 00:11:01;;;;;;;3.20;2.98;;;;;;;19.20;58.68;100232.42;1667491;84;21585;-50
2021/08/21 00:13:27;;;;;;;3.42;3.17;;;;;;;19.30;58.41;100229.04;1653568;84;21662;-49
2021/08/21 00:15:54;;;;;;;2.83;2.72;;;;;;;19.36;58.25;100228.58;1652629;84;21065;-51
2021/08/21 00:18:22;;;;;;;2.58;2.37;;;;;;;19.39;58.04;100232.14;1661624;84;21547;-51
2021/08/21 00:20:50;;;;;;;3.77;3.50;;;;;;;19.35;58.17;100234.52;1654190;84;21070;-53
2021/08/21 00:23:16;;;;;;;3.85;3.42;;;;;;;19.28;58.13;100237.12;1660801;84;21002;-49
2021/08/21 00:25:43;;;;;;;4.75;3.42;;;;;;;19.14;58.42;100229.91;1671292;84;21030;-51
2021/08/21 00:28:09;;;;;;;2.90;2.80;;;;;;;19.04;58.79;100232.73;1672310;84;21514;-50
2021/08/21 00:30:37;;;;;;;3.10;3.00;;;;;;;19.01;59.07;100235.92;1670686;84;21035;-50
2021/08/21 00:33:04;;;;;;;3.50;3.40;;;;;;;18.98;59.00;100235.59;1670892;84;21055;-52
2021/08/21 00:35:31;;;;;;;3.33;3.02;;;;;;;18.93;59.15;100232.80;1663077;84;21195;-49
2021/08/21 00:37:57;;;;;;;3.00;2.80;;;;;;;18.86;59.33;100233.80;1662992;84;21010;-49
2021/08/21 00:40:24;;;;;;;2.75;2.65;;;;;;;18.88;59.46;100232.75;1670883;84;21004;-49
2021/08/21 00:42:52;;;;;;;3.15;3.00;;;;;;;18.93;59.11;100232.80;1674300;84;21060;-50
2021/08/21 00:45:19;;;;;;;3.72;3.45;;;;;;;18.96;59.10;100235.02;1673628;84;22000;-51
2021/08/21 00:47:45;;;;;;;3.55;3.25;;;;;;;18.92;59.09;100235.23;1665744;84;21101;-51
2021/08/21 00:50:12;;;;;;;4.08;3.65;;;;;;;18.87;59.19;100233.25;1666427;84;21026;-52
2021/08/21 00:52:39;;;;;;;3.02;2.83;;;;;;;18.79;59.22;100229.05;1665026;84;21106;-50
2021/08/21 00:55:09;;;;;;;3.70;3.50;;;;;;;18.73;59.34;100216.55;1666160;82;21646;-50
2021/08/21 00:57:35;;;;;;;3.40;3.20;;;;;;;18.75;59.28;100224.41;1660993;84;21009;-51
2021/08/21 01:00:05;;;;;;;3.70;3.45;;;;;;;18.71;59.55;100228.13;1660320;84;21021;-51
2021/08/21 01:02:32;;;;;;;3.77;3.58;;;;;;;18.69;59.52;100224.85;1657833;84;20998;-50
2021/08/21 01:05:00;;;;;;;4.53;4.12;;;;;;;18.73;59.69;100230.04;1669255;84;21117;-50
2021/08/21 01:07:35;;;;;;;3.40;3.20;;;;;;;18.81;59.38;100220.74;1663794;84;21042;-50
2021/08/21 01:10:11;;;;;;;3.37;3.17;;;;;;;18.82;59.51;100223.20;1671356;83;21086;-51
2021/08/21 01:12:44;;;;;;;4.03;3.65;;;;;;;18.91;59.30;100226.83;1680217;83;21009;-50
2021/08/21 01:15:11;;;;;;;3.40;3.20;;;;;;;18.90;59.44;100231.42;1668428;83;21007;-52
2021/08/21 01:17:40;;;;;;;3.33;3.12;;;;;;;18.84;59.49;100222.97;1681399;83;21120;-50
2021/08/21 01:20:10;;;;;;;3.02;2.83;;;;;;;18.77;59.56;100220.37;1652271;85;21544;-51
2021/08/21 01:22:38;;;;;;;3.05;2.95;;;;;;;18.71;59.92;100213.27;1663714;84;21061;-49
2021/08/21 01:25:18;;;;;;;3.40;3.08;;;;;;;18.63;59.98;100215.84;1648740;85;21019;-50
2021/08/21 01:27:44;;;;;;;6.28;3.42;;;;;;;18.55;60.23;100214.07;1640488;86;21057;-50
2021/08/21 01:30:18;;;;;;;3.90;3.70;;;;;;;18.46;60.44;100218.53;1636899;87;21098;-50
2021/08/21 01:32:49;;;;;;;3.20;2.92;;;;;;;18.39;60.81;100215.16;1647391;85;21050;-49
2021/08/21 01:35:18;;;;;;;4.08;2.95;;;;;;;18.37;60.94;100218.64;1651657;86;20994;-48
2021/08/21 01:37:44;;;;;;;6.42;3.33;;;;;;;18.43;60.93;100215.50;1637340;87;21174;-50
2021/08/21 01:40:31;;;;;;;3.10;2.98;;;;;;;18.47;60.74;100217.45;1575254;89;21062;-48
2021/08/21 01:43:00;;;;;;;3.35;3.15;;;;;;;18.44;60.84;100220.66;1612027;88;21127;-49
2021/08/21 01:45:28;;;;;;;3.52;3.22;;;;;;;18.40;61.04;100220.86;1617023;85;21627;-48
2021/08/21 01:47:54;;;;;;;3.12;2.92;;;;;;;18.41;61.17;100213.03;1646913;85;21015;-48
2021/08/21 01:50:20;;;;;;;;;;;;;;;18.48;60.97;100218.30;1650421;85;21029;-49
2021/08/21 01:52:51;;;;;;;4.10;3.70;;;;;;;18.53;60.76;100217.01;1658974;85;20221;-50
2021/08/21 01:55:23;;;;;;;3.72;3.50;;;;;;;18.45;60.81;100218.77;1643368;85;21007;-50
2021/08/21 01:57:52;;;;;;;5.15;3.42;;;;;;;18.37;60.94;100221.34;1667886;84;21534;-49
2021/08/21 02:00:38;;;;;;;3.70;3.30;;;;;;;18.35;61.27;100220.77;1640960;85;21087;-52
2021/08/21 02:03:05;;;;;;;3.58;3.25;;;;;;;18.45;60.98;100225.52;1614030;87;21493;-51
2021/08/21 02:05:34;;;;;;;3.90;3.58;;;;;;;18.44;61.10;100227.41;1632190;87;21083;-52
2021/08/21 02:08:01;;;;;;;3.62;3.42;;;;;;;18.45;60.86;100230.91;1615491;87;21070;-51
2021/08/21 02:10:27;;;;;;;2.92;2.80;;;;;;;18.39;61.08;100233.24;1604408;87;21025;-49
2021/08/21 02:12:56;;;;;;;3.72;3.42;;;;;;;18.39;61.17;100236.75;1581387;88;21108;-51
2021/08/21 02:15:25;;;;;;;6.80;3.20;;;;;;;18.34;61.26;100233.95;1570479;88;21068;-51
2021/08/21 02:17:55;;;;;;;3.95;3.75;;;;;;;18.31;61.30;100233.11;1589781;88;21073;-50
2021/08/21 02:20:23;;;;;;;5.08;3.72;;;;;;;18.29;61.45;100237.39;1573966;88;21010;-52
2021/08/21 02:22:52;;;;;;;3.95;3.58;;;;;;;18.31;61.63;100233.61;1622918;85;21081;-52
2021/08/21 02:25:18;;;;;;;2.90;2.80;;;;;;;18.38;61.43;100232.40;1633546;86;21045;-50
2021/08/21 02:27:59;;;;;;;3.80;3.50;;;;;;;18.36;61.34;100233.17;1632030;85;21551;-51
2021/08/21 02:30:25;;;;;;;3.87;3.58;;;;;;;18.29;61.73;100229.83;1638299;85;21050;-52
2021/08/21 02:32:51;;;;;;;4.15;3.95;;;;;;;18.26;61.65;100235.70;1634097;86;21156;-51
2021/08/21 02:35:18;;;;;;;3.72;3.60;;;;;;;18.21;62.12;100231.55;1649491;85;21540;-51
2021/08/21 02:37:44;;;;;;;3.72;2.77;;;;;;;18.26;61.94;100231.66;1654533;86;21006;-52
2021/08/21 02:40:13;;;;;;;3.60;3.40;;;;;;;18.24;61.91;100230.54;1649300;86;21094;-50
2021/08/21 02:42:39;;;;;;;3.35;3.15;;;;;;;18.20;61.60;100232.63;1652225;85;21078;-50
2021/08/21 02:45:10;;;;;;;3.50;3.20;;;;;;;18.13;61.71;100235.99;1635001;85;21102;-52
2021/08/21 02:47:37;;;;;;;3.40;3.10;;;;;;;18.07;61.96;100235.08;1643697;86;21054;-50
2021/08/21 02:50:05;;;;;;;3.80;3.50;;;;;;;18.00;62.40;100235.74;1660362;85;21805;-50
2021/08/21 02:52:31;;;;;;;3.98;3.62;;;;;;;18.02;62.36;100239.83;1642090;86;21042;-50
2021/08/21 02:54:59;;;;;;;4.12;3.83;;;;;;;17.80;62.20;100194.33;1642141;87;21068;-50
2021/08/21 02:57:26;;;;;;;3.42;3.22;;;;;;;18.05;62.42;100239.36;1640388;85;21287;-49
2021/08/21 02:59:53;;;;;;;3.27;2.98;;;;;;;18.07;62.44;100235.89;1636389;86;21058;-50
2021/08/21 03:02:19;;;;;;;3.35;3.25;;;;;;;18.13;62.02;100235.99;1675337;84;21075;-50
2021/08/21 03:04:47;;;;;;;3.15;2.95;;;;;;;18.14;61.82;100229.52;1671683;84;21064;-49
2021/08/21 03:07:15;;;;;;;4.92;4.15;;;;;;;18.06;62.04;100233.42;1674203;83;21004;-50
2021/08/21 03:09:47;;;;;;;3.77;2.95;;;;;;;17.97;62.12;100235.70;1666196;84;21034;-53
2021/08/21 03:12:14;;;;;;;4.20;3.80;;;;;;;17.84;62.53;100240.84;1649571;85;21039;-50
2021/08/21 03:14:55;;;;;;;4.30;4.05;;;;;;;17.77;63.04;100242.81;1638576;86;21548;-51
2021/08/21 03:17:22;;;;;;;4.05;3.58;;;;;;;17.77;63.19;100238.77;1625531;86;21022;-50
2021/08/21 03:19:49;;;;;;;6.87;3.52;;;;;;;17.84;62.97;100235.45;1635688;86;21147;-51
2021/08/21 03:22:15;;;;;;;4.42;3.27;;;;;;;17.97;62.61;100234.36;1638788;85;21000;-50
2021/08/21 03:24:42;;;;;;;3.75;3.55;;;;;;;18.10;62.28;100237.28;1639075;86;21060;-51
2021/08/21 03:27:10;;;;;;;4.15;3.67;;;;;;;18.24;62.03;100246.73;1638211;86;21592;-49
2021/08/21 03:29:37;;;;;;;4.12;3.75;;;;;;;18.46;61.45;100244.17;1637272;86;21657;-53
2021/08/21 03:32:07;;;;;;;4.20;3.83;;;;;;;18.64;60.94;100240.95;1645110;86;21591;-52
2021/08/21 03:34:34;;;;;;;4.10;3.80;;;;;;;18.84;60.33;100246.73;1597834;88;21014;-52
2021/08/21 03:37:02;;;;;;;4.55;4.25;;;;;;;19.02;60.04;100244.83;1664782;85;21084;-50
2021/08/21 03:39:28;;;;;;;4.15;3.60;;;;;;;19.30;59.13;100239.84;1636797;86;21013;-51
2021/08/21 03:41:55;;;;;;;4.22;3.92;;;;;;;19.57;58.26;100244.53;1633348;86;21082;-50
2021/08/21 03:44:21;;;;;;;3.98;3.75;;;;;;;19.84;57.35;100248.16;1628533;86;21507;-52
2021/08/21 03:46:48;;;;;;;4.55;4.22;;;;;;;20.11;56.44;100243.87;1623013;87;21165;-51
2021/08/21 03:49:14;;;;;;;;;;;;;;;20.34;55.66;100244.95;1655429;85;21099;-51
2021/08/21 03:51:40;;;;;;;3.95;3.65;;;;;;;20.60;55.07;100244.66;1659433;85;20402;-52
2021/08/21 03:54:06;;;;;;;;;;;;;;;20.80;54.07;100237.25;1630068;86;21028;-53
2021/08/21 03:56:32;;;;;;;3.62;3.05;;;;;;;21.00;53.54;100239.83;1637163;86;20109;-51
2021/08/21 03:59:04;;;;;;;4.42;3.80;;;;;;;21.23;53.05;100241.88;1648160;85;21532;-50
2021/08/21 04:01:32;;;;;;;3.80;3.50;;;;;;;21.51;52.28;100242.91;1619073;86;21553;-51
2021/08/21 04:04:07;;;;;;;4.30;3.98;;;;;;;21.86;51.62;100244.13;1631942;86;21093;-53
2021/08/21 04:06:40;;;;;;;4.62;3.58;;;;;;;22.25;50.32;100242.38;1632995;86;21519;-51
2021/08/21 04:09:09;;;;;;;3.95;3.52;;;;;;;22.54;49.65;100246.76;1633496;87;21058;-51
2021/08/21 04:11:38;;;;;;;3.10;2.90;;;;;;;22.84;48.24;100238.91;1633761;86;21094;-50
2021/08/21 04:14:10;;;;;;;3.15;2.95;;;;;;;22.94;48.40;100243.80;1631284;86;21008;-50
2021/08/21 04:16:37;;;;;;;2.65;2.52;;;;;;;23.10;47.94;100241.89;1669860;84;21053;-50
2021/08/21 04:19:04;;;;;;;4.03;3.27;;;;;;;23.31;47.09;100250.82;1669158;84;21628;-54
2021/08/21 04:21:35;;;;;;;2.87;2.75;;;;;;;23.48;46.81;100254.59;1667812;84;21551;-51
2021/08/21 04:24:00;;;;;;;2.92;2.72;;;;;;;23.64;46.63;100247.73;1678675;83;21028;-51
2021/08/21 04:26:26;;;;;;;2.77;2.60;;;;;;;23.91;45.79;100250.12;1689065;83;21100;-50
2021/08/21 04:28:52;;;;;;;3.22;3.02;;;;;;;24.10;45.35;100247.02;1689218;83;21028;-52
2021/08/21 04:31:19;;;;;;;2.83;2.72;;;;;;;24.33;45.01;100251.51;1692304;83;21135;-55
2021/08/21 04:33:46;;;;;;;3.25;2.67;;;;;;;24.57;44.31;100252.20;1687327;83;21328;-51
2021/08/21 04:36:12;;;;;;;5.15;3.30;;;;;;;24.79;43.54;100247.66;1688993;83;21029;-52
2021/08/21 04:38:39;;;;;;;3.20;3.00;;;;;;;24.93;43.02;100243.18;1658838;85;21114;-53
2021/08/21 04:41:06;;;;;;;2.85;2.75;;;;;;;25.08;43.18;100249.60;1684414;83;21048;-53
2021/08/21 04:43:32;;;;;;;5.40;3.22;;;;;;;25.33;42.93;100247.99;1685067;83;21036;-52
2021/08/21 04:45:58;;;;;;;3.55;3.25;;;;;;;25.69;42.39;100250.31;1667966;83;21079;-50
2021/08/21 04:48:25;;;;;;;3.00;2.80;;;;;;;25.93;41.22;100246.78;1695171;83;21024;-52
2021/08/21 04:50:51;;;;;;;2.87;2.67;;;;;;;25.99;41.31;100248.33;1693253;83;21095;-52
2021/08/21 04:53:18;;;;;;;3.42;3.30;;;;;;;26.07;41.04;100253.16;1667571;83;21032;-53
2021/08/21 04:55:46;;;;;;;2.90;2.80;;;;;;;26.11;40.72;100242.45;1698496;83;21036;-55
2021/08/21 04:58:13;;;;;;;2.52;2.33;;;;;;;26.18;40.77;100255.17;1684267;83;21060;-53
2021/08/21 05:00:41;;;;;;;2.77;2.67;;;;;;;26.22;40.81;100257.03;1692306;83;21588;-53
2021/08/21 05:03:12;;;;;;;2.75;2.65;;;;;;;26.29;41.28;100260.75;1690129;83;21081;-52
2021/08/21 05:05:40;;;;;;;3.10;2.92;;;;;;;26.48;40.47;100265.40;1687000;83;21048;-52
2021/08/21 05:08:07;;;;;;;3.80;3.50;;;;;;;26.54;40.17;100263.67;1681339;83;21016;-53
2021/08/21 05:10:34;;;;;;;3.55;3.25;;;;;;;26.62;40.08;100264.95;1680372;83;21063;-53
2021/08/21 05:13:02;;;;;;;2.87;2.67;;;;;;;26.60;40.00;100262.50;1694095;83;21004;-53
2021/08/21 05:15:33;;;;;;;2.77;2.67;;;;;;;26.54;40.23;100274.61;1696560;83;21047;-53
2021/08/21 05:18:24;;;;;;;2.87;2.77;;;;;;;26.52;40.38;100273.26;1690390;83;20985;-52
2021/08/21 05:20:54;;;;;;;2.77;2.52;;;;;;;26.53;40.18;100263.40;1684295;83;21140;-53
2021/08/21 05:23:21;;;;;;;5.72;2.67;;;;;;;26.52;40.52;100267.79;1690253;83;21045;-54
2021/08/21 05:25:49;;;;;;;3.65;2.70;;;;;;;26.58;40.52;100265.26;1699152;83;21527;-52
2021/08/21 05:28:18;;;;;;;2.40;2.12;;;;;;;26.56;39.86;100264.19;1689812;83;21196;-52
2021/08/21 05:30:47;;;;;;;5.17;2.72;;;;;;;26.32;40.36;100267.56;1690515;83;20997;-52
2021/08/21 05:33:16;;;;;;;2.55;2.35;;;;;;;25.96;41.06;100264.77;1689721;83;21080;-52
2021/08/21 05:35:43;;;;;;;3.08;2.52;;;;;;;25.58;41.84;100264.66;1687497;83;21147;-54
2021/08/21 05:38:11;;;;;;;3.08;2.98;;;;;;;25.25;42.79;100271.26;1694095;83;21029;-53
2021/08/21 05:40:39;;;;;;;5.05;2.83;;;;;;;25.18;43.00;100265.30;1685732;83;21550;-54
2021/08/21 05:43:06;;;;;;;2.87;2.77;;;;;;;25.10;43.51;100267.85;1687213;83;21543;-53
2021/08/21 05:45:34;;;;;;;3.20;3.00;;;;;;;25.22;43.56;100268.27;1677921;83;21128;-52
2021/08/21 05:48:00;;;;;;;3.55;2.83;;;;;;;25.42;43.20;100268.64;1683125;83;21059;-53
2021/08/21 05:50:27;;;;;;;3.27;3.08;;;;;;;25.62;42.64;100268.98;1689409;83;21533;-53
2021/08/21 05:52:53;;;;;;;3.08;2.80;;;;;;;25.83;42.18;100269.55;1679673;83;21029;-53
2021/08/21 05:55:21;;;;;;;4.72;2.70;;;;;;;25.91;42.05;100272.17;1685393;83;21523;-52
2021/08/21 05:57:49;;;;;;;2.37;2.22;;;;;;;25.65;42.33;100273.84;1673587;83;21079;-53
2021/08/21 06:00:16;;;;;;;2.92;2.55;;;;;;;25.35;43.11;100270.89;1680534;83;21059;-53
2021/08/21 06:02:43;;;;;;;2.52;2.42;;;;;;;25.26;43.65;100274.82;1692510;83;21009;-54
2021/08/21 06:05:11;;;;;;;3.00;2.70;;;;;;;25.30;43.74;100270.94;1690321;83;21530;-52
2021/08/21 06:07:39;;;;;;;3.12;2.92;;;;;;;25.45;43.34;100269.44;1663113;83;21056;-53
2021/08/21 06:10:09;;;;;;;2.98;2.30;;;;;;;25.60;42.94;100272.00;1692692;83;21036;-53
2021/08/21 06:12:36;;;;;;;2.85;2.65;;;;;;;25.74;43.29;100269.92;1683690;83;21051;-54
2021/08/21 06:15:06;;;;;;;3.55;3.25;;;;;;;25.96;42.48;100278.41;1679808;84;21573;-54
2021/08/21 06:17:32;;;;;;;6.40;3.05;;;;;;;26.14;42.33;100277.36;1671666;84;21132;-54
2021/08/21 06:19:59;;;;;;;3.55;3.25;;;;;;;26.23;41.66;100272.30;1680597;84;21545;-54
2021/08/21 06:22:25;;;;;;;2.60;2.37;;;;;;;26.18;43.11;100264.73;1673750;84;21001;-54
2021/08/21 06:24:52;;;;;;;11.05;2.70;;;;;;;26.29;41.71;100273.61;1663419;84;21020;-52
2021/08/21 06:27:19;;;;;;;2.58;2.37;;;;;;;26.15;42.19;100263.41;1679203;84;21507;-53
2021/08/21 06:29:45;;;;;;;3.20;2.90;;;;;;;25.89;42.54;100264.27;1683408;84;20995;-53
2021/08/21 06:32:11;;;;;;;3.42;2.42;;;;;;;25.59;43.39;100260.00;1678245;84;20996;-54
2021/08/21 06:34:39;;;;;;;3.25;2.87;;;;;;;25.45;44.09;100256.60;1681008;83;21622;-53
2021/08/21 06:37:08;;;;;;;2.47;2.37;;;;;;;25.58;43.14;100259.72;1691548;84;21153;-53
2021/08/21 06:39:35;;;;;;;2.27;2.17;;;;;;;25.60;43.20;100263.00;1668880;84;21614;-53
2021/08/21 06:42:03;;;;;;;3.85;2.47;;;;;;;25.63;42.89;100265.94;1683465;84;21080;-53
2021/08/21 06:44:30;;;;;;;4.35;1.70;;;;;;;25.76;42.59;100267.16;1687794;84;21088;-55
2021/08/21 06:46:57;;;;;;;1.60;1.60;;;;;;;25.97;42.12;100266.94;1675904;84;21076;-54
2021/08/21 06:49:25;;;;;;;2.20;2.02;;;;;;;26.01;41.59;100265.23;1679814;84;21326;-54
2021/08/21 06:51:51;;;;;;;2.35;2.10;;;;;;;25.97;40.84;100268.30;1679910;84;21092;-53
2021/08/21 06:54:18;;;;;;;2.72;1.87;;;;;;;25.91;41.46;100263.98;1678992;84;21048;-54
2021/08/21 06:56:45;;;;;;;3.80;1.82;;;;;;;25.88;42.00;100264.03;1673502;83;20987;-53
2021/08/21 06:59:11;;;;;;;3.35;2.72;;;;;;;25.93;41.60;100263.97;1676878;84;21019;-56
2021/08/21 07:01:37;;;;;;;2.22;1.57;;;;;;;26.12;40.64;100261.26;1678581;83;21056;-54
2021/08/21 07:04:03;;;;;;;3.80;1.77;;;;;;;26.32;39.69;100268.36;1680599;84;21009;-54
2021/08/21 07:06:30;;;;;;;1.45;1.35;;;;;;;26.38;39.68;100273.20;1670916;84;21052;-54
2021/08/21 07:08:57;;;;;;;1.45;1.35;;;;;;;26.38;39.52;100267.17;1673366;84;21483;-54
2021/08/21 07:11:25;;;;;;;4.78;2.98;;;;;;;26.38;39.14;100271.84;1660867;84;21063;-53
2021/08/21 07:13:53;;;;;;;1.82;1.30;;;;;;;26.22;39.21;100271.26;1698627;83;21059;-53
2021/08/21 07:16:19;;;;;;;0.93;0.93;;;;;;;26.07;39.08;100270.08;1696664;83;21097;-52
2021/08/21 07:18:46;;;;;;;2.47;1.02;;;;;;;25.83;39.88;100268.18;1697871;83;21083;-53
2021/08/21 07:21:12;;;;;;;1.25;1.15;;;;;;;25.60;40.45;100265.17;1689612;83;21060;-54
2021/08/21 07:23:39;;;;;;;1.00;1.00;;;;;;;25.49;40.61;100262.86;1688654;83;21043;-56
2021/08/21 07:26:06;;;;;;;1.02;1.02;;;;;;;25.40;40.41;100271.66;1692414;83;21082;-53
2021/08/21 07:28:32;;;;;;;1.50;0.72;;;;;;;25.18;40.70;100271.30;1688468;83;21087;-53
2021/08/21 07:30:58;;;;;;;2.42;1.42;;;;;;;24.92;41.01;100272.09;1701623;83;21059;-53
2021/08/21 07:33:24;;;;;;;0.70;0.70;;;;;;;24.59;42.09;100267.16;1701647;83;21580;-54
2021/08/21 07:35:50;;;;;;;1.67;1.25;;;;;;;24.39;42.84;100270.83;1700769;83;21041;-53
2021/08/21 07:38:17;;;;;;;2.05;1.37;;;;;;;24.35;42.85;100270.30;1696504;83;21144;-54
2021/08/21 07:40:43;;;;;;;1.10;1.05;;;;;;;24.34;43.08;100275.50;1707877;83;21011;-53
2021/08/21 07:43:09;;;;;;;1.12;1.12;;;;;;;24.29;42.48;100279.85;1702851;83;20958;-53
2021/08/21 07:45:35;;;;;;;1.95;1.85;;;;;;;24.06;43.39;100239.70;1700729;82;20967;-54
2021/08/21 07:48:01;;;;;;;2.45;1.47;;;;;;;24.29;43.42;100283.94;1691158;83;21010;-53
2021/08/21 07:50:28;;;;;;;1.75;1.65;;;;;;;24.35;43.44;100279.83;1699724;83;20942;-52
2021/08/21 07:52:54;;;;;;;0.90;0.90;;;;;;;24.40;42.68;100273.80;1679024;83;20992;-52
2021/08/21 07:55:20;;;;;;;1.22;1.22;;;;;;;24.47;42.80;100276.23;1680225;81;20948;-53
2021/08/21 07:57:46;;;;;;;1.22;1.10;;;;;;;24.52;42.56;100276.20;1679320;83;20996;-54
2021/08/21 08:00:14;;;;;;;1.70;1.40;;;;;;;24.55;42.96;100289.83;1682146;83;21015;-54
2021/08/21 08:02:44;;;;;;;2.50;1.12;;;;;;;24.48;42.10;100286.81;1692040;83;20964;-52
2021/08/21 08:05:13;;;;;;;3.37;1.02;;;;;;;24.43;42.13;100288.23;1680184;83;21020;-52
2021/08/21 08:07:39;;;;;;;1.50;0.98;;;;;;;24.41;42.60;100287.70;1685294;83;21004;-54
2021/08/21 08:10:07;;;;;;;4.33;1.40;;;;;;;24.46;42.74;100286.84;1683086;83;21477;-54
2021/08/21 08:12:34;;;;;;;3.55;1.10;;;;;;;24.53;42.67;100279.77;1684265;83;21115;-53
2021/08/21 08:15:02;;;;;;;1.80;1.32;;;;;;;24.57;42.22;100285.71;1688213;83;20977;-52
2021/08/21 08:17:28;;;;;;;1.17;1.17;;;;;;;24.53;42.56;100286.58;1690235;83;20981;-53
2021/08/21 08:19:54;;;;;;;0.80;0.80;;;;;;;24.48;43.11;100281.37;1686449;83;21515;-53
2021/08/21 08:22:21;;;;;;;1.07;1.07;;;;;;;24.48;43.47;100284.66;1683544;83;21084;-54
2021/08/21 08:27:21;;;;;;;1.30;1.27;;;;;;;24.58;42.78;100283.27;1784634;78;22669;-55
2021/08/21 08:29:47;;;;;;;2.25;1.17;;;;;;;24.57;42.80;100278.90;1738407;81;21030;-53
2021/08/21 08:32:13;;;;;;;1.67;1.57;;;;;;;24.59;42.79;100282.70;1747990;80;21070;-54
2021/08/21 08:34:41;;;;;;;0.85;0.85;;;;;;;24.63;41.85;100283.20;1702391;83;21113;-53
2021/08/21 08:37:11;;;;;;;1.85;1.05;;;;;;;24.61;41.83;100279.15;1701722;83;21524;-55
2021/08/21 08:39:36;;;;;;;1.30;1.12;;;;;;;24.56;42.21;100279.17;1673481;84;20977;-54
2021/08/21 08:42:03;;;;;;;1.70;1.10;;;;;;;24.59;41.30;100274.53;1681216;84;21005;-53
2021/08/21 08:44:32;;;;;;;3.62;1.07;;;;;;;24.57;41.15;100278.09;1682504;84;20958;-54
2021/08/21 08:47:00;;;;;;;0.88;0.88;;;;;;;24.51;41.18;100280.02;1688563;84;21022;-54
2021/08/21 08:49:28;;;;;;;2.15;1.12;;;;;;;24.48;41.12;100276.48;1719146;81;20993;-53
2021/08/21 08:51:55;;;;;;;0.90;0.85;;;;;;;24.49;41.83;100280.84;1700623;84;20991;-54
2021/08/21 08:54:21;;;;;;;0.62;0.62;;;;;;;24.53;40.36;100277.84;1720940;82;21025;-53
2021/08/21 08:56:47;;;;;;;0.40;0.30;;;;;;;24.57;38.38;100280.27;1696785;81;21573;-54
2021/08/21 08:59:14;;;;;;;0.47;0.45;;;;;;;24.59;37.12;100283.52;1699018;83;20960;-54
2021/08/21 09:01:42;;;;;;;1.25;0.53;;;;;;;24.59;37.71;100281.34;1662330;83;21061;-55
2021/08/21 09:04:23;;;;;;;3.70;0.60;;;;;;;24.60;37.95;100282.44;1619013;87;21079;-54
2021/08/21 09:06:51;;;;;;;0.40;0.35;;;;;;;24.58;36.99;100275.09;1645126;86;21093;-55
2021/08/21 09:09:21;;;;;;;0.98;0.30;;;;;;;24.38;36.18;100238.42;1639916;86;20994;-53
2021/08/21 09:11:54;;;;;;;0.50;0.50;;;;;;;24.61;35.67;100277.23;1650124;86;21094;-55
2021/08/21 09:14:32;;;;;;;0.40;0.30;;;;;;;24.63;35.18;100276.39;1664482;86;21472;-55
2021/08/21 09:17:17;;;;;;;1.57;0.80;;;;;;;24.61;35.70;100275.87;1680552;85;20982;-55
2021/08/21 09:19:46;;;;;;;0.40;0.35;;;;;;;24.61;36.36;100266.89;1667645;86;20993;-55
2021/08/21 09:22:14;;;;;;;1.20;0.70;;;;;;;24.60;37.04;100270.17;1691166;82;20990;-55
2021/08/21 09:24:42;;;;;;;1.65;0.47;;;;;;;24.57;36.95;100272.64;1678439;85;21507;-56
2021/08/21 09:27:24;;;;;;;0.95;0.60;;;;;;;24.59;37.19;100265.00;1645841;84;21072;-54
2021/08/21 09:30:13;;;;;;;1.32;0.80;;;;;;;24.62;37.56;100271.22;1636297;86;21049;-53
2021/08/21 09:32:41;;;;;;;0.75;0.75;;;;;;;24.64;36.48;100259.52;1634630;86;21065;-55
2021/08/21 09:35:12;;;;;;;0.50;0.40;;;;;;;24.57;35.88;100250.84;1654618;85;20998;-54
2021/08/21 09:37:49;;;;;;;2.47;0.40;;;;;;;24.57;35.67;100268.56;1648219;85;21026;-55
2021/08/21 09:40:31;;;;;;;1.92;0.50;;;;;;;24.45;35.28;100265.61;1655221;85;21055;-55
2021/08/21 09:42:59;;;;;;;4.55;0.50;;;;;;;24.42;35.85;100258.55;1628224;86;21074;-51
2021/08/21 09:45:26;;;;;;;1.10;0.60;;;;;;;24.44;36.03;100264.52;1670045;84;21005;-53
2021/08/21 09:48:02;;;;;;;1.25;0.40;;;;;;;24.50;36.25;100262.02;1684349;84;21043;-54
2021/08/21 09:50:38;;;;;;;0.60;0.50;;;;;;;24.56;36.27;100268.28;1680554;84;21056;-55
2021/08/21 09:53:08;;;;;;;4.05;0.65;;;;;;;24.55;36.33;100268.84;1681104;84;21102;-53
2021/08/21 09:55:37;;;;;;;1.07;0.57;;;;;;;24.53;36.06;100265.58;1673558;84;20994;-53
2021/08/21 09:58:09;;;;;;;1.98;0.50;;;;;;;24.54;36.25;100265.83;1639936;86;21073;-52
2021/08/21 10:00:38;;;;;;;2.02;0.50;;;;;;;24.60;36.73;100265.25;1632574;86;21393;-55
2021/08/21 10:03:05;;;;;;;0.95;0.60;;;;;;;24.76;36.85;100261.88;1631367;86;21087;-55
2021/08/21 10:05:34;;;;;;;1.22;0.82;;;;;;;24.87;36.70;100257.96;1606086;87;21137;-55
2021/08/21 10:08:12;;;;;;;1.25;0.40;;;;;;;24.99;36.75;100265.76;1611215;87;20995;-56
2021/08/21 10:10:49;;;;;;;0.90;0.70;;;;;;;25.06;36.50;100276.59;1630373;86;21067;-55
2021/08/21 10:13:09;;;;;;;3.02;0.72;;;;;;;25.01;36.42;100269.01;1679887;84;21025;-55
2021/08/21 10:15:40;;;;;;;1.87;0.80;;;;;;;24.95;36.78;100272.33;1671226;84;21042;-53
2021/08/21 10:18:09;;;;;;;1.10;0.90;;;;;;;24.94;37.15;100268.52;1672758;84;20998;-54
2021/08/21 10:20:39;;;;;;;9.18;1.00;;;;;;;25.00;36.97;100259.22;1656308;85;21050;-54
2021/08/21 10:23:11;;;;;;;2.55;2.25;;;;;;;25.06;36.90;100261.59;1659402;82;21009;-55
2021/08/21 10:25:43;;;;;;;1.22;1.12;;;;;;;25.14;36.31;100263.44;1636710;86;21050;-54
2021/08/21 10:28:12;;;;;;;0.65;0.45;;;;;;;25.15;36.20;100264.52;1660255;85;21532;-57
2021/08/21 10:30:44;;;;;;;0.50;0.50;;;;;;;25.19;36.05;100261.48;1628298;85;21046;-54
2021/08/21 10:33:12;;;;;;;5.03;0.57;;;;;;;25.19;35.52;100264.77;1665981;84;21089;-53
2021/08/21 10:35:57;;;;;;;0.65;0.37;;;;;;;25.16;35.19;100268.06;1694119;85;21042;-54
2021/08/21 10:38:39;;;;;;;1.55;0.60;;;;;;;25.10;35.30;100260.47;1685690;83;20990;-55
2021/08/21 10:41:26;;;;;;;1.00;0.57;;;;;;;25.14;35.82;100260.72;1686372;83;21106;-52
2021/08/21 10:43:58;;;;;;;0.80;0.80;;;;;;;25.21;35.72;100258.47;1687097;83;21032;-56
2021/08/21 10:46:36;;;;;;;2.30;0.65;;;;;;;25.25;34.78;100256.26;1662778;85;21089;-55
2021/08/21 10:49:06;;;;;;;1.10;0.82;;;;;;;25.28;34.84;100254.89;1666202;84;21049;-54
2021/08/21 10:51:42;;;;;;;1.95;0.65;;;;;;;25.30;34.80;100251.84;1649799;85;21569;-55
2021/08/21 10:54:28;;;;;;;0.50;0.50;;;;;;;25.35;34.40;100252.61;1643746;85;21007;-54
2021/08/21 10:57:18;;;;;;;4.80;0.40;;;;;;;25.31;34.19;100252.92;1685937;83;20970;-57
2021/08/21 10:59:47;;;;;;;2.45;0.60;;;;;;;25.24;34.58;100260.63;1691835;85;21001;-58
2021/08/21 11:02:34;;;;;;;4.42;0.40;;;;;;;25.21;34.14;100247.56;1662469;83;21015;-57
2021/08/21 11:05:00;;;;;;;2.37;0.62;;;;;;;25.27;34.18;100249.16;1658252;85;21004;-57
2021/08/21 11:07:38;;;;;;;0.80;0.45;;;;;;;25.24;33.93;100243.73;1655021;85;20984;-57
2021/08/21 11:10:29;;;;;;;1.22;0.40;;;;;;;25.18;34.67;100240.75;1658263;85;21386;-58
2021/08/21 11:12:55;;;;;;;0.62;0.62;;;;;;;25.17;34.71;100245.15;1661526;85;21083;-57
2021/08/21 11:15:30;;;;;;;1.85;1.27;;;;;;;25.19;34.95;100238.30;1663653;85;21050;-58
2021/08/21 11:17:54;;;;;;;0.70;0.70;;;;;;;25.24;34.99;100245.62;1665391;85;21045;-58
2021/08/21 11:20:28;;;;;;;1.30;0.57;;;;;;;25.33;35.03;100239.00;1665066;85;21485;-58
2021/08/21 11:23:15;;;;;;;5.97;0.65;;;;;;;25.40;34.70;100237.55;1657724;85;20980;-58
2021/08/21 11:25:45;;;;;;;0.53;0.40;;;;;;;25.48;34.88;100236.66;1660815;85;21147;-57
2021/08/21 11:28:20;;;;;;;1.40;0.40;;;;;;;25.58;34.51;100238.73;1665884;85;21208;-59
2021/08/21 11:31:12;;;;;;;2.12;0.60;;;;;;;25.63;34.25;100238.64;1659145;85;21538;-57
2021/08/21 11:33:42;;;;;;;2.40;0.55;;;;;;;25.65;34.08;100238.36;1663743;85;21110;-57
2021/08/21 11:36:10;;;;;;;1.67;0.50;;;;;;;25.67;33.74;100240.23;1662924;85;20978;-56
2021/08/21 11:38:40;;;;;;;0.75;0.75;;;;;;;25.67;33.93;100234.78;1661235;85;20998;-56